sensor_id;sensor_type;location;lat;lon;timestamp;P1;durP1;ratioP1;P2;durP2;ratioP2
47225;SDS011;32965;64.142;-21.912;2023-09-19T15:26:07;2.28;;;0.52;;
47225;SDS011;32965;64.142;-21.912;2023-09-19T15:31:19;6.60;;;0.90;;
47225;SDS011;32965;64.142;-21.912;2023-09-19T15:36:22;2.17;;;0.60;;
47225;SDS011;32965;64.142;-21.912;2023-09-19T15:39:05;6.05;;;1.45;;
47225;SDS011;32965;64.142;-21.912;2023-09-19T15:41:36;3.05;;;1.20;;
47225;SDS011;32965;64.142;-21.912;2023-09-19T15:44:03;4.45;;;0.73;;
47225;SDS011;32965;64.142;-21.912;2023-09-19T15:46:35;4.68;;;1.27;;
47225;SDS011;32965;64.142;-21.912;2023-09-19T15:49:02;3.35;;;0.88;;
47225;SDS011;32965;64.142;-21.912;2023-09-19T15:53:58;2.63;;;1.15;;
47225;SDS011;32965;64.142;-21.912;2023-09-19T15:56:28;5.15;;;1.23;;
47225;SDS011;32965;64.142;-21.912;2023-09-19T15:58:54;7.90;;;2.17;;
47225;SDS011;32965;64.142;-21.912;2023-09-19T16:01:27;2.92;;;0.73;;
47225;SDS011;32965;64.142;-21.912;2023-09-19T16:03:53;6.65;;;1.17;;
47225;SDS011;32965;64.142;-21.912;2023-09-19T16:06:21;4.32;;;0.88;;
47225;SDS011;32965;64.142;-21.912;2023-09-19T16:08:56;6.38;;;1.80;;
47225;SDS011;32965;64.142;-21.912;2023-09-19T16:11:23;9.48;;;1.48;;
47225;SDS011;32965;64.142;-21.912;2023-09-19T16:13:51;2.92;;;1.08;;
47225;SDS011;32965;64.142;-21.912;2023-09-19T16:16:18;5.13;;;1.65;;
47225;SDS011;32965;64.142;-21.912;2023-09-19T16:18:54;7.20;;;1.00;;
47225;SDS011;32965;64.142;-21.912;2023-09-19T16:24:48;12.32;;;2.35;;
47225;SDS011;32965;64.142;-21.912;2023-09-19T16:27:14;7.30;;;2.28;;
47225;SDS011;32965;64.142;-21.912;2023-09-19T16:29:40;7.13;;;1.80;;
47225;SDS011;32965;64.142;-21.912;2023-09-19T16:35:20;7.90;;;1.73;;
47225;SDS011;32965;64.142;-21.912;2023-09-19T16:37:46;8.52;;;1.83;;
47225;SDS011;32965;64.142;-21.912;2023-09-19T16:40:12;6.15;;;1.60;;
47225;SDS011;32965;64.142;-21.912;2023-09-19T16:42:38;6.88;;;1.27;;
47225;SDS011;32965;64.142;-21.912;2023-09-19T16:45:04;7.70;;;1.77;;
47225;SDS011;32965;64.142;-21.912;2023-09-19T16:47:30;6.32;;;1.42;;
47225;SDS011;32965;64.142;-21.912;2023-09-19T16:49:56;7.13;;;1.90;;
47225;SDS011;32965;64.142;-21.912;2023-09-19T16:52:23;7.00;;;1.75;;
47225;SDS011;32965;64.142;-21.912;2023-09-19T16:54:49;4.60;;;1.08;;
47225;SDS011;32965;64.142;-21.912;2023-09-19T16:57:15;2.17;;;0.68;;
47225;SDS011;32965;64.142;-21.912;2023-09-19T16:59:41;2.22;;;0.68;;
47225;SDS011;32965;64.142;-21.912;2023-09-19T17:02:07;8.02;;;1.42;;
47225;SDS011;32965;64.142;-21.912;2023-09-19T17:04:33;3.95;;;0.90;;
47225;SDS011;32965;64.142;-21.912;2023-09-19T17:06:59;5.25;;;0.60;;
47225;SDS011;32965;64.142;-21.912;2023-09-19T17:09:25;5.13;;;1.13;;
47225;SDS011;32965;64.142;-21.912;2023-09-19T17:11:51;7.70;;;1.40;;
47225;SDS011;32965;64.142;-21.912;2023-09-19T17:14:17;8.88;;;1.77;;
47225;SDS011;32965;64.142;-21.912;2023-09-19T17:16:43;6.85;;;1.42;;
47225;SDS011;32965;64.142;-21.912;2023-09-19T17:19:09;5.72;;;1.35;;
47225;SDS011;32965;64.142;-21.912;2023-09-19T17:21:37;2.67;;;0.70;;
47225;SDS011;32965;64.142;-21.912;2023-09-19T17:24:04;3.85;;;0.88;;
47225;SDS011;32965;64.142;-21.912;2023-09-19T17:26:32;5.93;;;1.02;;
47225;SDS011;32965;64.142;-21.912;2023-09-19T17:28:59;4.35;;;0.80;;
47225;SDS011;32965;64.142;-21.912;2023-09-19T17:31:25;7.28;;;1.77;;
47225;SDS011;32965;64.142;-21.912;2023-09-19T17:33:52;9.63;;;1.38;;
47225;SDS011;32965;64.142;-21.912;2023-09-19T17:36:22;3.63;;;1.10;;
47225;SDS011;32965;64.142;-21.912;2023-09-19T17:38:49;4.78;;;1.20;;
47225;SDS011;32965;64.142;-21.912;2023-09-19T17:41:16;7.03;;;1.17;;
47225;SDS011;32965;64.142;-21.912;2023-09-19T17:43:42;6.18;;;1.05;;
47225;SDS011;32965;64.142;-21.912;2023-09-19T17:46:11;11.77;;;1.27;;
47225;SDS011;32965;64.142;-21.912;2023-09-19T17:48:41;4.43;;;1.17;;
47225;SDS011;32965;64.142;-21.912;2023-09-19T17:51:11;5.38;;;1.20;;
47225;SDS011;32965;64.142;-21.912;2023-09-19T17:53:39;2.88;;;1.15;;
47225;SDS011;32965;64.142;-21.912;2023-09-19T17:56:08;3.25;;;1.02;;
47225;SDS011;32965;64.142;-21.912;2023-09-19T18:01:27;4.28;;;1.02;;
47225;SDS011;32965;64.142;-21.912;2023-09-19T18:03:55;6.57;;;1.10;;
47225;SDS011;32965;64.142;-21.912;2023-09-19T18:06:25;5.45;;;1.60;;
47225;SDS011;32965;64.142;-21.912;2023-09-19T18:08:52;7.22;;;1.40;;
47225;SDS011;32965;64.142;-21.912;2023-09-19T18:11:20;8.83;;;1.97;;
47225;SDS011;32965;64.142;-21.912;2023-09-19T18:16:49;4.60;;;1.00;;
47225;SDS011;32965;64.142;-21.912;2023-09-19T18:19:17;8.45;;;1.02;;
47225;SDS011;32965;64.142;-21.912;2023-09-19T18:21:43;9.38;;;2.00;;
47225;SDS011;32965;64.142;-21.912;2023-09-19T18:27:33;2.50;;;0.60;;
47225;SDS011;32965;64.142;-21.912;2023-09-19T18:30:00;5.72;;;1.20;;
47225;SDS011;32965;64.142;-21.912;2023-09-19T18:32:26;7.68;;;1.00;;
47225;SDS011;32965;64.142;-21.912;2023-09-19T18:38:15;8.93;;;0.90;;
47225;SDS011;32965;64.142;-21.912;2023-09-19T18:40:44;5.70;;;1.10;;
47225;SDS011;32965;64.142;-21.912;2023-09-19T18:48:56;4.35;;;0.52;;
47225;SDS011;32965;64.142;-21.912;2023-09-19T18:54:57;8.15;;;1.13;;
47225;SDS011;32965;64.142;-21.912;2023-09-19T18:57:22;11.20;;;1.15;;
47225;SDS011;32965;64.142;-21.912;2023-09-19T18:59:49;2.08;;;0.50;;
47225;SDS011;32965;64.142;-21.912;2023-09-19T19:02:15;5.40;;;0.93;;
47225;SDS011;32965;64.142;-21.912;2023-09-19T19:04:42;3.47;;;1.33;;
47225;SDS011;32965;64.142;-21.912;2023-09-19T19:07:08;2.17;;;0.75;;
47225;SDS011;32965;64.142;-21.912;2023-09-19T19:09:39;4.03;;;1.20;;
47225;SDS011;32965;64.142;-21.912;2023-09-19T19:12:05;5.22;;;0.88;;
47225;SDS011;32965;64.142;-21.912;2023-09-19T19:14:31;4.25;;;0.90;;
47225;SDS011;32965;64.142;-21.912;2023-09-19T19:16:58;4.75;;;0.57;;
47225;SDS011;32965;64.142;-21.912;2023-09-19T19:19:24;4.10;;;1.20;;
47225;SDS011;32965;64.142;-21.912;2023-09-19T19:21:52;4.22;;;1.00;;
47225;SDS011;32965;64.142;-21.912;2023-09-19T19:27:41;3.28;;;1.05;;
47225;SDS011;32965;64.142;-21.912;2023-09-19T19:30:07;6.10;;;1.08;;
47225;SDS011;32965;64.142;-21.912;2023-09-19T19:32:33;3.40;;;0.55;;
47225;SDS011;32965;64.142;-21.912;2023-09-19T19:34:59;1.55;;;0.50;;
47225;SDS011;32965;64.142;-21.912;2023-09-19T19:37:26;3.20;;;0.50;;
47225;SDS011;32965;64.142;-21.912;2023-09-19T19:39:52;3.83;;;0.90;;
47225;SDS011;32965;64.142;-21.912;2023-09-19T19:42:18;1.98;;;0.80;;
47225;SDS011;32965;64.142;-21.912;2023-09-19T19:44:44;4.93;;;0.60;;
47225;SDS011;32965;64.142;-21.912;2023-09-19T19:47:10;5.00;;;0.70;;
47225;SDS011;32965;64.142;-21.912;2023-09-19T19:49:37;3.40;;;0.77;;
47225;SDS011;32965;64.142;-21.912;2023-09-19T19:52:04;3.78;;;0.57;;
47225;SDS011;32965;64.142;-21.912;2023-09-19T19:54:30;1.52;;;0.50;;
47225;SDS011;32965;64.142;-21.912;2023-09-19T19:56:56;2.58;;;0.52;;
47225;SDS011;32965;64.142;-21.912;2023-09-19T19:59:22;1.83;;;0.90;;
47225;SDS011;32965;64.142;-21.912;2023-09-19T20:04:38;3.90;;;0.95;;
47225;SDS011;32965;64.142;-21.912;2023-09-19T20:07:05;5.47;;;0.95;;
47225;SDS011;32965;64.142;-21.912;2023-09-19T20:09:31;4.60;;;0.60;;
47225;SDS011;32965;64.142;-21.912;2023-09-19T20:17:22;3.40;;;0.75;;
47225;SDS011;32965;64.142;-21.912;2023-09-19T20:19:49;1.42;;;0.40;;
47225;SDS011;32965;64.142;-21.912;2023-09-19T20:22:18;2.78;;;0.50;;
47225;SDS011;32965;64.142;-21.912;2023-09-19T20:24:44;5.25;;;0.57;;
47225;SDS011;32965;64.142;-21.912;2023-09-19T20:27:12;2.47;;;0.52;;
47225;SDS011;32965;64.142;-21.912;2023-09-19T20:29:38;3.78;;;0.73;;
47225;SDS011;32965;64.142;-21.912;2023-09-19T20:32:05;2.90;;;0.25;;
47225;SDS011;32965;64.142;-21.912;2023-09-19T20:34:34;0.90;;;0.25;;
47225;SDS011;32965;64.142;-21.912;2023-09-19T20:37:14;1.80;;;0.40;;
47225;SDS011;32965;64.142;-21.912;2023-09-19T20:39:40;1.90;;;0.30;;
47225;SDS011;32965;64.142;-21.912;2023-09-19T20:42:07;0.80;;;0.20;;
47225;SDS011;32965;64.142;-21.912;2023-09-19T20:44:32;4.80;;;0.50;;
47225;SDS011;32965;64.142;-21.912;2023-09-19T20:46:59;1.63;;;0.30;;
47225;SDS011;32965;64.142;-21.912;2023-09-19T20:49:25;4.65;;;0.65;;
47225;SDS011;32965;64.142;-21.912;2023-09-19T20:51:51;2.03;;;0.30;;
47225;SDS011;32965;64.142;-21.912;2023-09-19T20:54:18;1.65;;;0.45;;
47225;SDS011;32965;64.142;-21.912;2023-09-19T20:56:44;1.92;;;0.30;;
47225;SDS011;32965;64.142;-21.912;2023-09-19T20:59:12;2.75;;;0.68;;
47225;SDS011;32965;64.142;-21.912;2023-09-19T21:01:38;3.95;;;0.50;;
47225;SDS011;32965;64.142;-21.912;2023-09-19T21:04:04;2.85;;;0.28;;
47225;SDS011;32965;64.142;-21.912;2023-09-19T21:06:30;4.78;;;0.55;;
47225;SDS011;32965;64.142;-21.912;2023-09-19T21:08:55;3.78;;;0.43;;
47225;SDS011;32965;64.142;-21.912;2023-09-19T21:11:22;0.55;;;0.22;;
47225;SDS011;32965;64.142;-21.912;2023-09-19T21:13:49;3.60;;;0.90;;
47225;SDS011;32965;64.142;-21.912;2023-09-19T21:16:16;2.40;;;0.40;;
47225;SDS011;32965;64.142;-21.912;2023-09-19T21:18:43;4.90;;;0.50;;
47225;SDS011;32965;64.142;-21.912;2023-09-19T21:23:53;1.52;;;0.30;;
47225;SDS011;32965;64.142;-21.912;2023-09-19T21:26:19;4.05;;;0.50;;
47225;SDS011;32965;64.142;-21.912;2023-09-19T21:28:45;5.05;;;0.60;;
47225;SDS011;32965;64.142;-21.912;2023-09-19T21:31:11;2.30;;;0.32;;
47225;SDS011;32965;64.142;-21.912;2023-09-19T21:33:42;3.28;;;0.38;;
47225;SDS011;32965;64.142;-21.912;2023-09-19T21:36:10;2.55;;;0.43;;
47225;SDS011;32965;64.142;-21.912;2023-09-19T21:38:44;2.28;;;0.22;;
47225;SDS011;32965;64.142;-21.912;2023-09-19T21:43:46;3.20;;;0.47;;
47225;SDS011;32965;64.142;-21.912;2023-09-19T21:46:16;2.20;;;0.55;;
47225;SDS011;32965;64.142;-21.912;2023-09-19T21:48:42;3.97;;;0.52;;
47225;SDS011;32965;64.142;-21.912;2023-09-19T21:54:01;5.90;;;0.77;;
47225;SDS011;32965;64.142;-21.912;2023-09-19T21:56:28;2.28;;;0.40;;
47225;SDS011;32965;64.142;-21.912;2023-09-19T21:58:54;3.58;;;0.57;;
47225;SDS011;32965;64.142;-21.912;2023-09-19T22:01:20;1.85;;;0.40;;
47225;SDS011;32965;64.142;-21.912;2023-09-19T22:08:55;2.17;;;0.30;;
47225;SDS011;32965;64.142;-21.912;2023-09-19T22:11:21;2.70;;;0.30;;
47225;SDS011;32965;64.142;-21.912;2023-09-19T22:16:17;1.75;;;0.65;;
47225;SDS011;32965;64.142;-21.912;2023-09-19T22:18:45;0.63;;;0.47;;
47225;SDS011;32965;64.142;-21.912;2023-09-19T22:21:12;3.08;;;0.35;;
47225;SDS011;32965;64.142;-21.912;2023-09-19T22:23:44;3.15;;;0.57;;
47225;SDS011;32965;64.142;-21.912;2023-09-19T22:26:14;2.33;;;0.40;;
47225;SDS011;32965;64.142;-21.912;2023-09-19T22:31:28;0.80;;;0.30;;
47225;SDS011;32965;64.142;-21.912;2023-09-19T22:34:04;3.60;;;0.88;;
47225;SDS011;32965;64.142;-21.912;2023-09-19T22:39:13;0.70;;;0.20;;
47225;SDS011;32965;64.142;-21.912;2023-09-19T22:41:54;4.78;;;0.43;;
47225;SDS011;32965;64.142;-21.912;2023-09-19T22:44:24;1.98;;;0.28;;
47225;SDS011;32965;64.142;-21.912;2023-09-19T22:46:53;1.25;;;0.30;;
47225;SDS011;32965;64.142;-21.912;2023-09-19T22:49:19;0.82;;;0.10;;
47225;SDS011;32965;64.142;-21.912;2023-09-19T22:51:45;1.10;;;0.10;;
47225;SDS011;32965;64.142;-21.912;2023-09-19T22:54:16;2.38;;;0.20;;
47225;SDS011;32965;64.142;-21.912;2023-09-19T22:56:51;0.50;;;0.28;;
47225;SDS011;32965;64.142;-21.912;2023-09-19T22:59:18;7.70;;;0.77;;
47225;SDS011;32965;64.142;-21.912;2023-09-19T23:04:54;2.13;;;0.50;;
47225;SDS011;32965;64.142;-21.912;2023-09-19T23:07:26;1.10;;;0.32;;
47225;SDS011;32965;64.142;-21.912;2023-09-19T23:09:53;1.27;;;0.35;;
47225;SDS011;32965;64.142;-21.912;2023-09-19T23:12:20;2.70;;;0.30;;
47225;SDS011;32965;64.142;-21.912;2023-09-19T23:14:48;3.45;;;0.73;;
47225;SDS011;32965;64.142;-21.912;2023-09-19T23:17:14;4.93;;;0.65;;
47225;SDS011;32965;64.142;-21.912;2023-09-19T23:19:46;4.30;;;0.30;;
47225;SDS011;32965;64.142;-21.912;2023-09-19T23:22:17;5.00;;;0.50;;
47225;SDS011;32965;64.142;-21.912;2023-09-19T23:24:44;1.42;;;0.28;;
47225;SDS011;32965;64.142;-21.912;2023-09-19T23:27:29;2.92;;;0.40;;
47225;SDS011;32965;64.142;-21.912;2023-09-19T23:29:59;3.47;;;0.63;;
47225;SDS011;32965;64.142;-21.912;2023-09-19T23:32:25;2.25;;;0.30;;
47225;SDS011;32965;64.142;-21.912;2023-09-19T23:34:50;1.70;;;0.30;;
47225;SDS011;32965;64.142;-21.912;2023-09-19T23:37:16;2.35;;;0.30;;
47225;SDS011;32965;64.142;-21.912;2023-09-19T23:39:46;1.50;;;0.25;;
47225;SDS011;32965;64.142;-21.912;2023-09-19T23:42:14;1.10;;;0.30;;
47225;SDS011;32965;64.142;-21.912;2023-09-19T23:44:40;3.25;;;0.43;;
47225;SDS011;32965;64.142;-21.912;2023-09-19T23:47:07;1.15;;;0.22;;
47225;SDS011;32965;64.142;-21.912;2023-09-19T23:49:36;5.75;;;0.90;;
47225;SDS011;32965;64.142;-21.912;2023-09-19T23:55:26;1.77;;;0.30;;
47225;SDS011;32965;64.142;-21.912;2023-09-19T23:57:52;4.50;;;0.63;;
